createdAt,value
2019-02-28T00:00:37.204Z,2.30
2019-02-28T00:03:07.479Z,2.30
2019-02-28T00:05:40.203Z,2.40
2019-02-28T00:08:10.378Z,2.40
2019-02-28T00:10:40.552Z,2.50
2019-02-28T00:13:11.031Z,2.60
2019-02-28T00:15:41.186Z,2.60
2019-02-28T00:18:15.255Z,2.70
2019-02-28T00:20:43.143Z,2.90
2019-02-28T00:23:13.743Z,3.00
2019-02-28T00:25:46.144Z,3.10
2019-02-28T00:28:16.331Z,3.20
2019-02-28T00:30:47.752Z,3.20
2019-02-28T00:33:17.946Z,3.30
2019-02-28T00:35:48.089Z,3.40
2019-02-28T00:38:19.813Z,3.50
2019-02-28T00:40:49.963Z,3.50
2019-02-28T00:43:22.318Z,3.50
2019-02-28T00:45:51.935Z,3.50
2019-02-28T00:48:22.831Z,3.50
2019-02-28T00:50:52.982Z,3.60
2019-02-28T00:53:24.376Z,3.60
2019-02-28T00:55:55.929Z,3.60
2019-02-28T00:58:28.626Z,3.70
2019-02-28T01:00:57.992Z,3.70
2019-02-28T01:03:31.412Z,3.70
2019-02-28T01:06:02.362Z,3.80
2019-02-28T01:08:34.118Z,3.80
2019-02-28T01:11:04.382Z,3.90
2019-02-28T01:13:34.537Z,3.90
2019-02-28T01:16:05.013Z,3.90
2019-02-28T01:18:35.457Z,4.00
2019-02-28T01:21:05.586Z,4.00
2019-02-28T01:23:36.848Z,3.90
2019-02-28T01:26:07.015Z,3.90
2019-02-28T01:28:37.143Z,3.90
2019-02-28T01:31:11.681Z,4.00
2019-02-28T01:33:42.415Z,4.00
2019-02-28T01:36:15.559Z,3.90
2019-02-28T01:38:45.997Z,3.90
2019-02-28T01:41:16.168Z,3.90
2019-02-28T01:43:46.279Z,3.80
2019-02-28T01:46:17.924Z,3.70
2019-02-28T01:48:48.710Z,3.60
2019-02-28T01:51:21.121Z,3.50
2019-02-28T01:53:53.554Z,3.40
2019-02-28T01:56:23.124Z,3.30
2019-02-28T01:58:53.253Z,3.30
2019-02-28T02:01:23.427Z,3.30
2019-02-28T02:03:56.057Z,3.50
2019-02-28T02:06:28.005Z,3.40
2019-02-28T02:08:58.776Z,3.40
2019-02-28T02:11:28.919Z,3.30
2019-02-28T02:14:00.588Z,3.20
2019-02-28T02:16:30.750Z,3.10
2019-02-28T02:19:00.895Z,3.00
2019-02-28T02:21:35.655Z,3.00
2019-02-28T02:24:07.531Z,3.00
2019-02-28T02:26:38.157Z,3.00
2019-02-28T02:29:10.830Z,2.90
2019-02-28T02:31:43.570Z,2.80
2019-02-28T02:34:16.033Z,2.80
2019-02-28T02:36:53.139Z,2.80
2019-02-28T02:39:20.128Z,2.80
2019-02-28T02:41:50.280Z,2.80
2019-02-28T02:44:20.411Z,2.80
2019-02-28T02:46:55.574Z,2.80
2019-02-28T02:49:22.799Z,2.90
2019-02-28T02:51:53.699Z,2.90
2019-02-28T02:54:23.955Z,3.00
2019-02-28T02:56:54.084Z,3.00
2019-02-28T02:59:24.347Z,3.00
2019-02-28T03:01:56.175Z,3.00
2019-02-28T03:04:26.372Z,3.00
2019-02-28T03:06:56.514Z,3.10
2019-02-28T03:09:27.938Z,3.10
2019-02-28T03:12:00.438Z,3.00
2019-02-28T03:14:30.635Z,3.00
2019-02-28T03:17:00.787Z,2.90
2019-02-28T03:19:33.693Z,2.90
2019-02-28T03:22:03.994Z,2.90
2019-02-28T03:24:34.480Z,3.00
2019-02-28T03:27:04.980Z,3.00
2019-02-28T03:29:35.137Z,2.90
2019-02-28T03:32:05.316Z,2.90
2019-02-28T03:34:35.493Z,2.90
2019-02-28T03:37:05.723Z,2.90
2019-02-28T03:39:36.871Z,2.90
2019-02-28T03:42:09.060Z,2.80
2019-02-28T03:44:39.612Z,2.80
2019-02-28T03:47:09.819Z,2.90
2019-02-28T03:49:48.490Z,2.90
2019-02-28T03:52:12.518Z,2.80
2019-02-28T03:54:43.292Z,2.80
2019-02-28T03:57:17.347Z,2.80
2019-02-28T03:59:55.371Z,2.80
2019-02-28T04:02:25.192Z,2.80
2019-02-28T04:04:56.079Z,2.80
2019-02-28T04:07:27.515Z,2.80
2019-02-28T04:09:59.083Z,2.80
2019-02-28T04:12:29.325Z,2.80
2019-02-28T04:14:59.556Z,2.80
2019-02-28T04:17:31.781Z,2.80
2019-02-28T04:20:02.425Z,2.80
2019-02-28T04:22:32.547Z,2.90
2019-02-28T04:25:03.892Z,3.00
2019-02-28T04:27:34.424Z,3.10
2019-02-28T04:30:07.969Z,3.30
2019-02-28T04:32:37.336Z,3.50
2019-02-28T04:35:07.490Z,3.80
2019-02-28T04:37:41.262Z,4.00
2019-02-28T04:40:10.125Z,4.10
2019-02-28T04:42:41.911Z,4.20
2019-02-28T04:45:12.122Z,4.30
2019-02-28T04:47:42.260Z,4.50
2019-02-28T04:50:12.886Z,4.50
2019-02-28T04:52:48.043Z,4.50
2019-02-28T04:55:15.802Z,4.60
2019-02-28T04:57:47.327Z,4.70
2019-02-28T05:00:21.160Z,4.80
2019-02-28T05:02:54.814Z,4.80
2019-02-28T05:05:23.159Z,4.70
2019-02-28T05:07:54.566Z,4.70
2019-02-28T05:10:26.525Z,4.70
2019-02-28T05:13:01.701Z,4.60
2019-02-28T05:15:37.322Z,4.50
2019-02-28T05:18:06.501Z,4.50
2019-02-28T05:20:37.021Z,4.40
2019-02-28T05:23:07.974Z,4.20
2019-02-28T05:25:39.965Z,4.10
2019-02-28T05:28:12.408Z,3.90
2019-02-28T05:30:42.976Z,3.80
2019-02-28T05:33:17.372Z,3.70
2019-02-28T05:35:50.083Z,3.50
2019-02-28T05:38:22.713Z,3.50
2019-02-28T05:40:56.827Z,3.50
2019-02-28T05:43:29.263Z,3.60
2019-02-28T05:46:02.168Z,3.60
2019-02-28T05:48:35.333Z,3.50
2019-02-28T05:51:04.694Z,3.40
2019-02-28T05:53:36.569Z,3.30
2019-02-28T05:56:06.738Z,3.20
2019-02-28T05:58:36.949Z,3.10
2019-02-28T06:01:08.700Z,3.00
2019-02-28T06:03:39.056Z,3.00
2019-02-28T06:06:09.592Z,3.00
2019-02-28T06:08:40.149Z,3.10
2019-02-28T06:11:10.400Z,3.00
2019-02-28T06:13:40.596Z,3.00
2019-02-28T06:16:12.307Z,3.00
2019-02-28T06:18:43.679Z,3.10
2019-02-28T06:21:16.069Z,3.00
2019-02-28T06:23:46.651Z,2.90
2019-02-28T06:26:16.918Z,2.80
2019-02-28T06:28:47.112Z,2.70
2019-02-28T06:31:17.247Z,2.70
2019-02-28T06:33:47.708Z,2.70
2019-02-28T06:36:18.008Z,2.60
2019-02-28T06:38:48.171Z,2.60
2019-02-28T06:41:22.262Z,2.60
2019-02-28T06:43:53.075Z,2.70
2019-02-28T06:46:24.409Z,2.60
2019-02-28T06:49:01.595Z,2.70
2019-02-28T06:51:26.802Z,2.70
2019-02-28T06:53:57.099Z,2.80
2019-02-28T06:56:28.296Z,2.80
2019-02-28T06:59:00.527Z,2.90
2019-02-28T07:01:30.726Z,2.90
2019-02-28T07:04:01.964Z,3.00
2019-02-28T07:06:35.686Z,3.10
2019-02-28T07:09:05.474Z,3.10
2019-02-28T07:11:36.101Z,3.10
2019-02-28T07:14:12.830Z,3.20
2019-02-28T07:16:41.078Z,3.30
2019-02-28T07:19:11.464Z,3.40
2019-02-28T07:21:44.438Z,3.50
2019-02-28T07:24:16.309Z,3.60
2019-02-28T07:26:48.226Z,3.60
2019-02-28T07:29:18.407Z,3.70
2019-02-28T07:31:48.583Z,3.80
2019-02-28T07:34:23.789Z,3.90
2019-02-28T07:36:53.190Z,4.00
2019-02-28T07:39:23.784Z,4.10
2019-02-28T07:41:58.899Z,4.30
2019-02-28T07:44:28.851Z,4.40
2019-02-28T07:46:59.056Z,4.50
2019-02-28T07:49:29.227Z,4.70
2019-02-28T07:51:59.959Z,4.80
2019-02-28T07:54:31.366Z,4.90
2019-02-28T07:57:01.739Z,5.00
2019-02-28T07:59:31.910Z,5.40
2019-02-28T08:02:04.484Z,5.70
2019-02-28T08:04:35.751Z,6.20
2019-02-28T08:07:07.161Z,6.50
2019-02-28T08:09:40.609Z,6.90
2019-02-28T08:12:09.763Z,7.30
2019-02-28T08:14:43.678Z,7.70
2019-02-28T08:17:17.083Z,8.00
2019-02-28T08:19:47.263Z,8.20
2019-02-28T08:22:23.344Z,8.40
2019-02-28T08:24:49.313Z,8.60
2019-02-28T08:27:20.013Z,8.80
2019-02-28T08:29:50.209Z,8.90
2019-02-28T08:32:21.524Z,9.10
2019-02-28T08:34:55.583Z,9.20
2019-02-28T08:37:26.316Z,9.40
2019-02-28T08:39:56.491Z,9.60
2019-02-28T08:42:27.033Z,9.70
2019-02-28T08:45:13.308Z,9.80
2019-02-28T08:47:43.562Z,10.20
2019-02-28T08:52:49.066Z,10.40
2019-02-28T08:55:27.920Z,10.40
2019-02-28T08:57:55.877Z,10.50
2019-02-28T09:00:31.339Z,10.70
2019-02-28T09:03:00.644Z,10.90
2019-02-28T09:05:32.495Z,11.10
2019-02-28T09:08:03.560Z,11.30
2019-02-28T09:10:34.144Z,11.50
2019-02-28T09:13:07.951Z,11.50
2019-02-28T09:15:37.051Z,11.80
2019-02-28T09:18:09.061Z,11.90
2019-02-28T09:20:41.418Z,11.90
2019-02-28T09:23:11.675Z,12.00
2019-02-28T09:25:41.896Z,12.20
2019-02-28T09:28:13.185Z,12.30
2019-02-28T09:30:46.090Z,12.40
2019-02-28T09:33:19.302Z,12.60
2019-02-28T09:35:49.602Z,12.60
2019-02-28T09:38:20.647Z,12.90
2019-02-28T09:41:01.368Z,13.00
2019-02-28T09:43:31.765Z,13.10
2019-02-28T09:46:03.663Z,13.30
2019-02-28T09:48:39.309Z,13.30
2019-02-28T09:51:11.609Z,13.50
2019-02-28T09:53:42.351Z,13.60
2019-02-28T09:56:14.696Z,13.70
2019-02-28T09:58:45.022Z,13.90
2019-02-28T10:01:15.309Z,14.00
2019-02-28T10:03:45.650Z,14.20
2019-02-28T10:06:17.976Z,14.30
2019-02-28T10:08:48.213Z,14.50
2019-02-28T10:11:18.384Z,14.70
2019-02-28T10:13:49.600Z,14.70
2019-02-28T10:16:20.514Z,14.80
2019-02-28T10:18:51.094Z,14.90
2019-02-28T10:21:21.265Z,15.00
2019-02-28T10:23:57.066Z,15.00
2019-02-28T10:26:26.985Z,15.10
2019-02-28T10:29:01.190Z,15.20
2019-02-28T10:31:37.353Z,15.10
2019-02-28T10:34:05.351Z,15.20
2019-02-28T10:36:36.963Z,15.30
2019-02-28T10:39:08.915Z,15.30
2019-02-28T10:41:41.300Z,15.40
2019-02-28T10:44:12.059Z,15.50
2019-02-28T10:47:29.624Z,15.60
2019-02-28T10:50:00.278Z,15.80
2019-02-28T10:52:30.826Z,16.00
2019-02-28T10:55:06.263Z,16.10
2019-02-28T10:57:40.688Z,16.10
2019-02-28T11:00:20.106Z,16.20
2019-02-28T11:02:54.149Z,16.40
2019-02-28T11:05:27.492Z,16.60
2019-02-28T11:07:58.234Z,16.70
2019-02-28T11:10:35.537Z,16.70
2019-02-28T11:13:07.059Z,16.90
2019-02-28T11:15:37.945Z,16.90
2019-02-28T11:18:11.089Z,16.90
2019-02-28T11:20:42.794Z,17.00
2019-02-28T11:23:15.011Z,17.00
2019-02-28T11:25:45.859Z,17.10
2019-02-28T11:28:16.347Z,17.10
2019-02-28T11:30:46.731Z,17.30
2019-02-28T11:33:17.206Z,17.20
2019-02-28T11:35:48.800Z,17.30
2019-02-28T11:38:21.722Z,17.50
2019-02-28T11:40:57.226Z,17.70
2019-02-28T11:43:26.689Z,17.60
2019-02-28T11:46:00.838Z,17.60
2019-02-28T11:48:29.625Z,17.60
2019-02-28T11:50:59.814Z,17.70
2019-02-28T11:53:29.992Z,17.90
2019-02-28T11:56:00.614Z,18.00
2019-02-28T11:58:31.840Z,18.20
2019-02-28T12:01:02.366Z,18.10
2019-02-28T12:03:35.462Z,18.30
2019-02-28T12:06:04.618Z,18.30
2019-02-28T12:08:34.815Z,18.10
2019-02-28T12:11:05.073Z,17.90
2019-02-28T12:13:35.267Z,17.80
2019-02-28T12:16:05.703Z,17.70
2019-02-28T12:18:39.502Z,17.70
2019-02-28T12:21:09.794Z,17.70
2019-02-28T12:23:42.475Z,17.70
2019-02-28T12:26:21.770Z,17.80
2019-02-28T12:28:54.410Z,17.90
2019-02-28T12:31:32.045Z,17.90
2019-02-28T12:34:02.419Z,18.00
2019-02-28T12:36:34.953Z,18.00
2019-02-28T12:39:07.343Z,18.00
2019-02-28T12:41:37.588Z,18.00
2019-02-28T12:44:08.463Z,18.00
2019-02-28T12:46:38.803Z,18.10
2019-02-28T12:49:09.016Z,18.20
2019-02-28T12:51:39.666Z,18.20
2019-02-28T12:54:10.534Z,18.20
2019-02-28T12:56:40.708Z,18.20
2019-02-28T12:59:10.966Z,18.10
2019-02-28T13:01:41.437Z,17.90
2019-02-28T13:04:11.837Z,17.80
2019-02-28T13:06:42.054Z,17.80
2019-02-28T13:09:13.613Z,17.90
2019-02-28T13:11:48.030Z,17.90
2019-02-28T13:14:19.667Z,18.10
2019-02-28T13:20:51.379Z,18.00
2019-02-28T13:23:22.566Z,17.70
2019-02-28T13:25:59.206Z,17.80
2019-02-28T13:28:24.805Z,17.90
2019-02-28T13:30:55.563Z,17.90
2019-02-28T13:33:25.948Z,18.00
2019-02-28T13:35:56.270Z,18.10
2019-02-28T13:38:26.941Z,18.30
2019-02-28T13:40:57.719Z,18.30
2019-02-28T13:43:28.935Z,18.40
2019-02-28T13:46:02.803Z,18.30
2019-02-28T13:48:34.814Z,18.10
2019-02-28T13:51:08.892Z,18.00
2019-02-28T13:53:39.181Z,18.20
2019-02-28T13:56:10.121Z,18.20
2019-02-28T13:58:40.461Z,18.40
2019-02-28T14:01:10.704Z,18.50
2019-02-28T14:03:42.227Z,18.40
2019-02-28T14:06:18.922Z,18.60
2019-02-28T14:08:45.991Z,19.30
2019-02-28T14:11:17.772Z,19.80
2019-02-28T14:13:48.095Z,20.10
2019-02-28T14:16:19.441Z,20.60
2019-02-28T14:18:49.575Z,20.70
2019-02-28T14:21:19.753Z,20.70
2019-02-28T14:23:52.467Z,20.80
2019-02-28T14:26:21.877Z,20.80
2019-02-28T14:28:52.092Z,21.30
2019-02-28T14:31:23.501Z,21.50
2019-02-28T14:33:55.233Z,21.10
2019-02-28T14:36:25.827Z,20.30
2019-02-28T14:38:56.459Z,20.30
2019-02-28T14:41:27.957Z,20.20
2019-02-28T14:43:58.619Z,19.90
2019-02-28T14:46:28.871Z,19.60
2019-02-28T14:48:59.083Z,19.80
2019-02-28T14:51:29.438Z,19.90
2019-02-28T14:53:59.636Z,19.70
2019-02-28T14:56:29.763Z,19.90
2019-02-28T14:59:01.260Z,19.90
2019-02-28T15:01:31.425Z,19.50
2019-02-28T15:04:02.705Z,19.50
2019-02-28T15:06:33.085Z,19.20
2019-02-28T15:09:04.508Z,19.60
2019-02-28T15:11:34.828Z,19.90
2019-02-28T15:14:27.158Z,19.70
2019-02-28T15:17:02.016Z,19.70
2019-02-28T15:19:33.223Z,19.40
2019-02-28T15:22:05.331Z,19.00
2019-02-28T15:24:35.972Z,18.90
2019-02-28T15:27:07.561Z,19.10
2019-02-28T15:29:38.494Z,18.80
2019-02-28T15:32:08.666Z,18.70
2019-02-28T15:34:41.290Z,18.70
2019-02-28T15:37:11.299Z,18.80
2019-02-28T15:39:41.488Z,19.00
2019-02-28T15:42:11.691Z,18.90
2019-02-28T15:44:41.887Z,19.00
2019-02-28T15:47:13.165Z,18.30
2019-02-28T15:49:43.423Z,17.80
2019-02-28T15:52:13.683Z,17.70
2019-02-28T15:54:43.914Z,17.80
2019-02-28T15:57:16.593Z,17.90
2019-02-28T15:59:49.833Z,17.80
2019-02-28T16:02:21.582Z,17.60
2019-02-28T16:04:53.450Z,17.50
2019-02-28T16:07:24.988Z,17.30
2019-02-28T16:09:57.072Z,17.00
2019-02-28T16:12:27.246Z,16.60
2019-02-28T16:14:57.592Z,16.60
2019-02-28T16:17:29.281Z,16.60
2019-02-28T16:20:00.740Z,16.40
2019-02-28T16:22:30.952Z,16.20
2019-02-28T16:25:04.707Z,16.10
2019-02-28T16:27:36.567Z,15.90
2019-02-28T16:30:08.201Z,15.80
2019-02-28T16:32:38.527Z,15.60
2019-02-28T16:35:08.954Z,15.40
2019-02-28T16:37:39.240Z,15.30
2019-02-28T16:40:11.595Z,15.30
2019-02-28T16:42:43.373Z,15.20
2019-02-28T16:45:29.035Z,15.20
2019-02-28T16:48:03.056Z,15.10
2019-02-28T16:50:32.817Z,15.00
2019-02-28T16:53:03.160Z,15.00
2019-02-28T16:55:33.330Z,14.90
2019-02-28T16:58:03.542Z,14.80
2019-02-28T17:00:34.218Z,14.80
2019-02-28T17:03:07.291Z,14.60
2019-02-28T17:05:40.275Z,14.60
2019-02-28T17:08:12.164Z,14.60
2019-02-28T17:10:44.298Z,14.50
2019-02-28T17:13:39.525Z,14.40
2019-02-28T17:16:28.904Z,14.40
2019-02-28T17:18:59.210Z,14.30
2019-02-28T17:21:29.411Z,14.10
2019-02-28T17:24:00.061Z,14.00
2019-02-28T17:27:07.493Z,13.90
2019-02-28T17:29:57.640Z,13.80
2019-02-28T17:32:32.265Z,13.80
2019-02-28T17:35:02.033Z,13.70
2019-02-28T17:37:32.269Z,13.50
2019-02-28T17:40:02.507Z,13.50
2019-02-28T17:42:32.748Z,13.50
2019-02-28T17:45:18.311Z,13.40
2019-02-28T17:48:32.387Z,13.30
2019-02-28T17:51:30.051Z,13.20
2019-02-28T17:54:36.325Z,13.10
2019-02-28T17:57:53.566Z,13.00
2019-02-28T18:01:29.920Z,12.90
2019-02-28T18:04:40.344Z,12.90
2019-02-28T18:07:53.185Z,12.80
2019-02-28T18:11:03.870Z,12.70
2019-02-28T18:14:35.102Z,12.60
2019-02-28T18:18:05.450Z,12.60
2019-02-28T18:21:22.909Z,12.50
2019-02-28T18:25:00.711Z,12.40
2019-02-28T18:27:46.765Z,12.30
2019-02-28T18:30:56.864Z,12.10
2019-02-28T18:33:30.527Z,12.00
2019-02-28T18:36:01.102Z,11.90
2019-02-28T18:38:40.488Z,11.80
2019-02-28T18:41:11.727Z,11.80
2019-02-28T18:43:43.280Z,11.70
2019-02-28T18:46:14.859Z,11.60
2019-02-28T18:48:51.215Z,11.50
2019-02-28T18:51:21.157Z,11.50
2019-02-28T18:53:52.058Z,11.40
2019-02-28T18:56:22.670Z,11.40
2019-02-28T18:58:53.969Z,11.30
2019-02-28T19:01:26.170Z,11.20
2019-02-28T19:03:59.220Z,11.10
2019-02-28T19:06:31.373Z,11.10
2019-02-28T19:09:03.277Z,11.00
2019-02-28T19:11:36.087Z,10.90
2019-02-28T19:14:10.962Z,10.80
2019-02-28T19:16:48.945Z,10.80
2019-02-28T19:19:22.128Z,10.80
2019-02-28T19:21:52.374Z,10.80
2019-02-28T19:24:22.723Z,10.80
2019-02-28T19:26:55.525Z,10.80
2019-02-28T19:29:27.027Z,10.80
2019-02-28T19:31:57.317Z,10.80
2019-02-28T19:34:27.874Z,10.70
2019-02-28T19:37:01.094Z,10.80
2019-02-28T19:39:31.673Z,10.80
2019-02-28T19:42:04.953Z,10.80
2019-02-28T19:44:37.931Z,10.70
2019-02-28T19:47:50.003Z,10.80
2019-02-28T19:50:27.246Z,10.80
2019-02-28T19:53:21.893Z,10.70
2019-02-28T19:56:12.179Z,10.70
2019-02-28T19:59:06.197Z,10.80
2019-02-28T20:05:14.391Z,10.90
2019-02-28T20:08:06.073Z,10.80
2019-02-28T20:10:39.778Z,10.80
2019-02-28T20:13:21.421Z,10.70
2019-02-28T20:16:10.962Z,10.60
2019-02-28T20:18:50.626Z,10.70
2019-02-28T20:21:25.264Z,10.70
2019-02-28T20:23:56.065Z,10.70
2019-02-28T20:26:30.044Z,10.70
2019-02-28T20:29:04.504Z,10.70
2019-02-28T20:31:55.571Z,10.70
2019-02-28T20:34:30.464Z,10.60
2019-02-28T20:37:02.490Z,10.60
2019-02-28T20:39:35.847Z,10.60
2019-02-28T20:42:15.522Z,10.60
2019-02-28T20:44:51.566Z,10.60
2019-02-28T20:47:24.756Z,10.60
2019-02-28T20:50:05.903Z,10.60
2019-02-28T20:52:47.345Z,10.60
2019-02-28T20:55:17.545Z,10.50
2019-02-28T20:57:49.484Z,10.50
2019-02-28T21:00:32.122Z,10.40
2019-02-28T21:03:03.247Z,10.50
2019-02-28T21:05:37.254Z,10.50
2019-02-28T21:08:12.107Z,10.50
2019-02-28T21:10:43.860Z,10.50
2019-02-28T21:13:18.888Z,10.60
2019-02-28T21:15:54.153Z,10.60
2019-02-28T21:18:24.717Z,10.70
2019-02-28T21:20:57.512Z,10.60
2019-02-28T21:23:28.140Z,10.70
2019-02-28T21:26:02.283Z,10.70
2019-02-28T21:28:32.547Z,10.60
2019-02-28T21:31:06.304Z,10.70
2019-02-28T21:33:36.646Z,10.70
2019-02-28T21:36:14.057Z,10.70
2019-02-28T21:38:46.631Z,10.60
2019-02-28T21:41:23.203Z,10.50
2019-02-28T21:43:57.686Z,10.50
2019-02-28T21:46:35.325Z,10.60
2019-02-28T21:49:07.009Z,10.50
2019-02-28T21:51:39.950Z,10.40
2019-02-28T21:54:12.229Z,10.30
2019-02-28T21:56:45.620Z,10.30
2019-02-28T21:59:15.826Z,10.20
2019-02-28T22:01:47.448Z,10.30
2019-02-28T22:04:19.927Z,10.30
2019-02-28T22:06:50.123Z,10.30
2019-02-28T22:09:30.579Z,10.30
2019-02-28T22:12:01.954Z,10.30
2019-02-28T22:14:35.096Z,10.30
2019-02-28T22:17:08.422Z,10.30
2019-02-28T22:19:40.478Z,10.40
2019-02-28T22:22:15.015Z,10.30
2019-02-28T22:24:56.692Z,10.30
2019-02-28T22:27:34.240Z,10.30
2019-02-28T22:30:29.102Z,9.90
2019-02-28T22:33:08.648Z,9.50
2019-02-28T22:35:45.090Z,9.40
2019-02-28T22:38:15.411Z,9.40
2019-02-28T22:40:47.374Z,9.30
2019-02-28T22:43:19.050Z,9.30
2019-02-28T22:45:50.693Z,9.30
2019-02-28T22:48:26.283Z,9.30
2019-02-28T22:50:58.035Z,9.20
2019-02-28T22:53:29.655Z,9.20
2019-02-28T22:56:03.027Z,9.20
2019-02-28T22:58:33.735Z,9.30
2019-02-28T23:01:15.596Z,9.30
2019-02-28T23:03:47.439Z,9.30
2019-02-28T23:06:18.821Z,9.30
2019-02-28T23:08:53.951Z,9.40
2019-02-28T23:11:26.228Z,9.40
2019-02-28T23:13:59.362Z,9.40
2019-02-28T23:16:31.231Z,9.30
2019-02-28T23:19:03.270Z,9.30
2019-02-28T23:21:35.167Z,9.30
2019-02-28T23:24:10.003Z,9.30
2019-02-28T23:27:14.485Z,9.40
2019-02-28T23:30:23.609Z,9.30
2019-02-28T23:32:59.675Z,9.30
2019-02-28T23:35:40.772Z,9.30
2019-02-28T23:38:20.335Z,9.20
2019-02-28T23:40:58.436Z,9.20
2019-02-28T23:43:29.027Z,9.10
2019-02-28T23:45:59.615Z,9.10
2019-02-28T23:48:32.757Z,9.10
2019-02-28T23:51:03.810Z,9.00
2019-02-28T23:53:36.903Z,9.00
2019-02-28T23:56:10.551Z,8.90
2019-02-28T23:58:43.910Z,8.80
